sensor_id;sensor_type;location;lat;lon;timestamp;pressure;altitude;pressure_sealevel;temperature
64960;BMP180;51487;52.266;10.542;2023-07-28T00:01:26;99382.00;;;17.20
64960;BMP180;51487;52.266;10.542;2023-07-28T00:03:52;99385.00;;;17.20
64960;BMP180;51487;52.266;10.542;2023-07-28T00:06:17;99379.00;;;17.10
64960;BMP180;51487;52.266;10.542;2023-07-28T00:08:43;99381.00;;;17.30
64960;BMP180;51487;52.266;10.542;2023-07-28T00:11:13;99384.00;;;17.30
64960;BMP180;51487;52.266;10.542;2023-07-28T00:13:41;99385.00;;;17.30
64960;BMP180;51487;52.266;10.542;2023-07-28T00:16:13;99379.00;;;17.20
64960;BMP180;51487;52.266;10.542;2023-07-28T00:18:42;99383.00;;;17.30
64960;BMP180;51487;52.266;10.542;2023-07-28T00:21:09;99384.00;;;17.30
64960;BMP180;51487;52.266;10.542;2023-07-28T00:23:34;99390.00;;;17.20
64960;BMP180;51487;52.266;10.542;2023-07-28T00:26:00;99380.00;;;17.30
64960;BMP180;51487;52.266;10.542;2023-07-28T00:28:26;99390.00;;;17.30
64960;BMP180;51487;52.266;10.542;2023-07-28T00:34:48;99387.00;;;17.20
64960;BMP180;51487;52.266;10.542;2023-07-28T00:37:13;99390.00;;;17.30
64960;BMP180;51487;52.266;10.542;2023-07-28T00:39:41;99385.00;;;17.30
64960;BMP180;51487;52.266;10.542;2023-07-28T00:42:07;99389.00;;;17.30
64960;BMP180;51487;52.266;10.542;2023-07-28T00:44:34;99388.00;;;17.30
64960;BMP180;51487;52.266;10.542;2023-07-28T00:47:00;99393.00;;;17.30
64960;BMP180;51487;52.266;10.542;2023-07-28T00:49:25;99393.00;;;17.30
64960;BMP180;51487;52.266;10.542;2023-07-28T00:51:51;99388.00;;;17.40
64960;BMP180;51487;52.266;10.542;2023-07-28T00:54:17;99382.00;;;17.40
64960;BMP180;51487;52.266;10.542;2023-07-28T00:56:44;99387.00;;;17.30
64960;BMP180;51487;52.266;10.542;2023-07-28T00:59:10;99388.00;;;17.30
64960;BMP180;51487;52.266;10.542;2023-07-28T01:01:36;99381.00;;;17.30
64960;BMP180;51487;52.266;10.542;2023-07-28T01:04:01;99383.00;;;17.30
64960;BMP180;51487;52.266;10.542;2023-07-28T01:07:09;99390.00;;;17.30
64960;BMP180;51487;52.266;10.542;2023-07-28T01:10:16;99377.00;;;17.20
64960;BMP180;51487;52.266;10.542;2023-07-28T01:12:44;99392.00;;;17.30
64960;BMP180;51487;52.266;10.542;2023-07-28T01:15:09;99373.00;;;17.30
64960;BMP180;51487;52.266;10.542;2023-07-28T01:17:35;99384.00;;;17.30
64960;BMP180;51487;52.266;10.542;2023-07-28T01:20:02;99377.00;;;17.30
64960;BMP180;51487;52.266;10.542;2023-07-28T01:22:40;99382.00;;;17.30
64960;BMP180;51487;52.266;10.542;2023-07-28T01:25:39;99370.00;;;17.30
64960;BMP180;51487;52.266;10.542;2023-07-28T01:28:15;99373.00;;;17.30
64960;BMP180;51487;52.266;10.542;2023-07-28T01:30:42;99371.00;;;17.40
64960;BMP180;51487;52.266;10.542;2023-07-28T01:33:08;99372.00;;;17.40
64960;BMP180;51487;52.266;10.542;2023-07-28T01:35:36;99366.00;;;17.40
64960;BMP180;51487;52.266;10.542;2023-07-28T01:38:03;99369.00;;;17.30
64960;BMP180;51487;52.266;10.542;2023-07-28T01:40:29;99367.00;;;17.40
64960;BMP180;51487;52.266;10.542;2023-07-28T01:42:55;99368.00;;;17.40
64960;BMP180;51487;52.266;10.542;2023-07-28T01:45:21;99366.00;;;17.40
64960;BMP180;51487;52.266;10.542;2023-07-28T01:47:46;99368.00;;;17.40
64960;BMP180;51487;52.266;10.542;2023-07-28T01:50:12;99371.00;;;17.40
64960;BMP180;51487;52.266;10.542;2023-07-28T01:52:38;99372.00;;;17.40
64960;BMP180;51487;52.266;10.542;2023-07-28T01:55:03;99374.00;;;17.40
64960;BMP180;51487;52.266;10.542;2023-07-28T01:57:32;99366.00;;;17.40
64960;BMP180;51487;52.266;10.542;2023-07-28T01:59:59;99361.00;;;17.40
64960;BMP180;51487;52.266;10.542;2023-07-28T02:02:25;99369.00;;;17.40
64960;BMP180;51487;52.266;10.542;2023-07-28T02:04:51;99360.00;;;17.40
64960;BMP180;51487;52.266;10.542;2023-07-28T02:07:16;99360.00;;;17.40
64960;BMP180;51487;52.266;10.542;2023-07-28T02:09:42;99372.00;;;17.30
64960;BMP180;51487;52.266;10.542;2023-07-28T02:12:08;99375.00;;;17.30
64960;BMP180;51487;52.266;10.542;2023-07-28T02:14:33;99380.00;;;17.20
64960;BMP180;51487;52.266;10.542;2023-07-28T02:16:59;99372.00;;;17.20
64960;BMP180;51487;52.266;10.542;2023-07-28T02:19:25;99374.00;;;17.30
64960;BMP180;51487;52.266;10.542;2023-07-28T02:21:51;99367.00;;;17.20
64960;BMP180;51487;52.266;10.542;2023-07-28T02:24:16;99374.00;;;17.20
64960;BMP180;51487;52.266;10.542;2023-07-28T02:26:42;99375.00;;;17.20
64960;BMP180;51487;52.266;10.542;2023-07-28T02:29:07;99379.00;;;17.20
64960;BMP180;51487;52.266;10.542;2023-07-28T02:31:33;99380.00;;;17.30
64960;BMP180;51487;52.266;10.542;2023-07-28T02:33:58;99377.00;;;17.30
64960;BMP180;51487;52.266;10.542;2023-07-28T02:36:24;99380.00;;;17.30
64960;BMP180;51487;52.266;10.542;2023-07-28T02:38:49;99376.00;;;17.30
64960;BMP180;51487;52.266;10.542;2023-07-28T02:41:15;99382.00;;;17.30
64960;BMP180;51487;52.266;10.542;2023-07-28T02:43:41;99380.00;;;17.20
64960;BMP180;51487;52.266;10.542;2023-07-28T02:46:06;99378.00;;;17.30
64960;BMP180;51487;52.266;10.542;2023-07-28T02:48:32;99383.00;;;17.20
64960;BMP180;51487;52.266;10.542;2023-07-28T02:50:57;99388.00;;;17.20
64960;BMP180;51487;52.266;10.542;2023-07-28T02:53:23;99388.00;;;17.30
64960;BMP180;51487;52.266;10.542;2023-07-28T02:55:49;99384.00;;;17.30
64960;BMP180;51487;52.266;10.542;2023-07-28T02:58:15;99398.00;;;17.30
64960;BMP180;51487;52.266;10.542;2023-07-28T03:00:42;99387.00;;;17.30
64960;BMP180;51487;52.266;10.542;2023-07-28T03:03:10;99402.00;;;17.30
64960;BMP180;51487;52.266;10.542;2023-07-28T03:05:39;99401.00;;;17.30
64960;BMP180;51487;52.266;10.542;2023-07-28T03:08:06;99400.00;;;17.30
64960;BMP180;51487;52.266;10.542;2023-07-28T03:10:32;99404.00;;;17.40
64960;BMP180;51487;52.266;10.542;2023-07-28T03:12:58;99409.00;;;17.30
64960;BMP180;51487;52.266;10.542;2023-07-28T03:15:23;99411.00;;;17.30
64960;BMP180;51487;52.266;10.542;2023-07-28T03:17:50;99410.00;;;17.30
64960;BMP180;51487;52.266;10.542;2023-07-28T03:20:16;99414.00;;;17.40
64960;BMP180;51487;52.266;10.542;2023-07-28T03:22:42;99417.00;;;17.40
64960;BMP180;51487;52.266;10.542;2023-07-28T03:25:09;99417.00;;;17.40
64960;BMP180;51487;52.266;10.542;2023-07-28T03:27:35;99413.00;;;17.50
64960;BMP180;51487;52.266;10.542;2023-07-28T03:30:01;99415.00;;;17.40
64960;BMP180;51487;52.266;10.542;2023-07-28T03:32:27;99416.00;;;17.40
64960;BMP180;51487;52.266;10.542;2023-07-28T03:34:52;99411.00;;;17.40
64960;BMP180;51487;52.266;10.542;2023-07-28T03:37:18;99418.00;;;17.40
64960;BMP180;51487;52.266;10.542;2023-07-28T03:39:44;99419.00;;;17.40
64960;BMP180;51487;52.266;10.542;2023-07-28T03:42:10;99421.00;;;17.40
64960;BMP180;51487;52.266;10.542;2023-07-28T03:44:36;99421.00;;;17.40
64960;BMP180;51487;52.266;10.542;2023-07-28T03:47:06;99417.00;;;17.40
64960;BMP180;51487;52.266;10.542;2023-07-28T03:49:33;99416.00;;;17.40
64960;BMP180;51487;52.266;10.542;2023-07-28T03:52:00;99419.00;;;17.40
64960;BMP180;51487;52.266;10.542;2023-07-28T03:54:25;99415.00;;;17.50
64960;BMP180;51487;52.266;10.542;2023-07-28T03:56:51;99421.00;;;17.50
64960;BMP180;51487;52.266;10.542;2023-07-28T03:59:16;99422.00;;;17.40
64960;BMP180;51487;52.266;10.542;2023-07-28T04:01:42;99432.00;;;17.40
64960;BMP180;51487;52.266;10.542;2023-07-28T04:04:07;99429.00;;;17.50
64960;BMP180;51487;52.266;10.542;2023-07-28T04:06:41;99428.00;;;17.40
64960;BMP180;51487;52.266;10.542;2023-07-28T04:09:17;99425.00;;;17.40
64960;BMP180;51487;52.266;10.542;2023-07-28T04:11:43;99426.00;;;17.40
64960;BMP180;51487;52.266;10.542;2023-07-28T04:14:09;99435.00;;;17.40
64960;BMP180;51487;52.266;10.542;2023-07-28T04:16:35;99435.00;;;17.50
64960;BMP180;51487;52.266;10.542;2023-07-28T04:19:00;99436.00;;;17.50
64960;BMP180;51487;52.266;10.542;2023-07-28T04:21:26;99432.00;;;17.50
64960;BMP180;51487;52.266;10.542;2023-07-28T04:23:52;99441.00;;;17.40
64960;BMP180;51487;52.266;10.542;2023-07-28T04:26:18;99432.00;;;17.50
64960;BMP180;51487;52.266;10.542;2023-07-28T04:28:44;99440.00;;;17.50
64960;BMP180;51487;52.266;10.542;2023-07-28T04:31:10;99434.00;;;17.50
64960;BMP180;51487;52.266;10.542;2023-07-28T04:33:36;99441.00;;;17.50
64960;BMP180;51487;52.266;10.542;2023-07-28T04:36:04;99437.00;;;17.50
64960;BMP180;51487;52.266;10.542;2023-07-28T04:38:29;99430.00;;;17.50
64960;BMP180;51487;52.266;10.542;2023-07-28T04:40:55;99434.00;;;17.50
64960;BMP180;51487;52.266;10.542;2023-07-28T04:43:21;99438.00;;;17.50
64960;BMP180;51487;52.266;10.542;2023-07-28T04:45:46;99437.00;;;17.50
64960;BMP180;51487;52.266;10.542;2023-07-28T04:48:12;99434.00;;;17.50
64960;BMP180;51487;52.266;10.542;2023-07-28T04:50:37;99432.00;;;17.50
64960;BMP180;51487;52.266;10.542;2023-07-28T04:53:03;99432.00;;;17.50
64960;BMP180;51487;52.266;10.542;2023-07-28T04:55:29;99438.00;;;17.60
64960;BMP180;51487;52.266;10.542;2023-07-28T04:57:56;99437.00;;;17.50
64960;BMP180;51487;52.266;10.542;2023-07-28T05:00:22;99435.00;;;17.60
64960;BMP180;51487;52.266;10.542;2023-07-28T05:02:48;99441.00;;;17.60
64960;BMP180;51487;52.266;10.542;2023-07-28T05:05:14;99449.00;;;17.60
64960;BMP180;51487;52.266;10.542;2023-07-28T05:07:40;99460.00;;;17.70
64960;BMP180;51487;52.266;10.542;2023-07-28T05:10:06;99459.00;;;17.80
64960;BMP180;51487;52.266;10.542;2023-07-28T05:12:32;99455.00;;;17.70
64960;BMP180;51487;52.266;10.542;2023-07-28T05:14:57;99464.00;;;17.70
64960;BMP180;51487;52.266;10.542;2023-07-28T05:17:23;99465.00;;;17.70
64960;BMP180;51487;52.266;10.542;2023-07-28T05:19:52;99461.00;;;17.80
64960;BMP180;51487;52.266;10.542;2023-07-28T05:22:17;99462.00;;;17.70
64960;BMP180;51487;52.266;10.542;2023-07-28T05:24:44;99463.00;;;17.70
64960;BMP180;51487;52.266;10.542;2023-07-28T05:27:11;99463.00;;;17.80
64960;BMP180;51487;52.266;10.542;2023-07-28T05:29:37;99469.00;;;17.80
64960;BMP180;51487;52.266;10.542;2023-07-28T05:32:03;99465.00;;;17.80
64960;BMP180;51487;52.266;10.542;2023-07-28T05:34:29;99477.00;;;17.80
64960;BMP180;51487;52.266;10.542;2023-07-28T05:36:55;99473.00;;;17.80
64960;BMP180;51487;52.266;10.542;2023-07-28T05:39:22;99474.00;;;17.80
64960;BMP180;51487;52.266;10.542;2023-07-28T05:41:47;99484.00;;;17.80
64960;BMP180;51487;52.266;10.542;2023-07-28T05:44:13;99481.00;;;17.70
64960;BMP180;51487;52.266;10.542;2023-07-28T05:46:39;99488.00;;;17.70
64960;BMP180;51487;52.266;10.542;2023-07-28T05:49:05;99495.00;;;17.70
64960;BMP180;51487;52.266;10.542;2023-07-28T05:51:31;99491.00;;;17.80
64960;BMP180;51487;52.266;10.542;2023-07-28T05:53:57;99496.00;;;17.70
64960;BMP180;51487;52.266;10.542;2023-07-28T05:56:22;99501.00;;;17.70
64960;BMP180;51487;52.266;10.542;2023-07-28T05:58:48;99505.00;;;17.70
64960;BMP180;51487;52.266;10.542;2023-07-28T06:01:15;99496.00;;;17.60
64960;BMP180;51487;52.266;10.542;2023-07-28T06:03:41;99494.00;;;17.70
64960;BMP180;51487;52.266;10.542;2023-07-28T06:06:06;99488.00;;;17.70
64960;BMP180;51487;52.266;10.542;2023-07-28T06:08:32;99500.00;;;17.80
64960;BMP180;51487;52.266;10.542;2023-07-28T06:10:59;99495.00;;;17.80
64960;BMP180;51487;52.266;10.542;2023-07-28T06:13:24;99497.00;;;17.80
64960;BMP180;51487;52.266;10.542;2023-07-28T06:15:53;99502.00;;;17.80
64960;BMP180;51487;52.266;10.542;2023-07-28T06:18:20;99503.00;;;17.80
64960;BMP180;51487;52.266;10.542;2023-07-28T06:20:48;99508.00;;;17.90
64960;BMP180;51487;52.266;10.542;2023-07-28T06:23:14;99507.00;;;17.90
64960;BMP180;51487;52.266;10.542;2023-07-28T06:25:40;99509.00;;;18.00
64960;BMP180;51487;52.266;10.542;2023-07-28T06:28:10;99506.00;;;17.90
64960;BMP180;51487;52.266;10.542;2023-07-28T06:30:36;99507.00;;;18.00
64960;BMP180;51487;52.266;10.542;2023-07-28T06:33:04;99512.00;;;17.80
64960;BMP180;51487;52.266;10.542;2023-07-28T06:35:31;99514.00;;;17.90
64960;BMP180;51487;52.266;10.542;2023-07-28T06:37:58;99518.00;;;17.90
64960;BMP180;51487;52.266;10.542;2023-07-28T06:40:24;99526.00;;;17.90
64960;BMP180;51487;52.266;10.542;2023-07-28T06:42:50;99527.00;;;17.90
64960;BMP180;51487;52.266;10.542;2023-07-28T06:45:16;99534.00;;;18.00
64960;BMP180;51487;52.266;10.542;2023-07-28T06:47:42;99540.00;;;17.90
64960;BMP180;51487;52.266;10.542;2023-07-28T06:50:08;99534.00;;;18.00
64960;BMP180;51487;52.266;10.542;2023-07-28T06:52:34;99541.00;;;17.90
64960;BMP180;51487;52.266;10.542;2023-07-28T06:54:59;99534.00;;;18.00
64960;BMP180;51487;52.266;10.542;2023-07-28T06:57:25;99545.00;;;18.10
64960;BMP180;51487;52.266;10.542;2023-07-28T06:59:50;99551.00;;;18.10
64960;BMP180;51487;52.266;10.542;2023-07-28T07:02:16;99549.00;;;18.10
64960;BMP180;51487;52.266;10.542;2023-07-28T07:04:42;99553.00;;;18.20
64960;BMP180;51487;52.266;10.542;2023-07-28T07:07:08;99556.00;;;18.20
64960;BMP180;51487;52.266;10.542;2023-07-28T07:09:34;99565.00;;;18.20
64960;BMP180;51487;52.266;10.542;2023-07-28T07:12:00;99569.00;;;18.20
64960;BMP180;51487;52.266;10.542;2023-07-28T07:14:25;99562.00;;;18.40
64960;BMP180;51487;52.266;10.542;2023-07-28T07:16:52;99574.00;;;18.60
64960;BMP180;51487;52.266;10.542;2023-07-28T07:19:17;99569.00;;;18.60
64960;BMP180;51487;52.266;10.542;2023-07-28T07:21:43;99573.00;;;18.60
64960;BMP180;51487;52.266;10.542;2023-07-28T07:24:10;99568.00;;;18.60
64960;BMP180;51487;52.266;10.542;2023-07-28T07:26:39;99565.00;;;18.70
64960;BMP180;51487;52.266;10.542;2023-07-28T07:29:05;99572.00;;;18.90
64960;BMP180;51487;52.266;10.542;2023-07-28T07:31:32;99574.00;;;18.90
64960;BMP180;51487;52.266;10.542;2023-07-28T07:33:58;99590.00;;;18.80
64960;BMP180;51487;52.266;10.542;2023-07-28T07:36:23;99583.00;;;18.70
64960;BMP180;51487;52.266;10.542;2023-07-28T07:38:49;99590.00;;;18.70
64960;BMP180;51487;52.266;10.542;2023-07-28T07:41:15;99591.00;;;18.70
64960;BMP180;51487;52.266;10.542;2023-07-28T07:43:44;99601.00;;;18.60
64960;BMP180;51487;52.266;10.542;2023-07-28T07:46:11;99599.00;;;18.30
64960;BMP180;51487;52.266;10.542;2023-07-28T07:48:36;99606.00;;;18.30
64960;BMP180;51487;52.266;10.542;2023-07-28T07:51:10;99604.00;;;18.20
64960;BMP180;51487;52.266;10.542;2023-07-28T07:53:43;99601.00;;;18.20
64960;BMP180;51487;52.266;10.542;2023-07-28T07:56:09;99598.00;;;18.00
64960;BMP180;51487;52.266;10.542;2023-07-28T07:58:35;99597.00;;;18.20
64960;BMP180;51487;52.266;10.542;2023-07-28T08:01:01;99600.00;;;18.20
64960;BMP180;51487;52.266;10.542;2023-07-28T08:03:27;99610.00;;;18.20
64960;BMP180;51487;52.266;10.542;2023-07-28T08:05:53;99609.00;;;18.20
64960;BMP180;51487;52.266;10.542;2023-07-28T08:08:19;99602.00;;;18.20
64960;BMP180;51487;52.266;10.542;2023-07-28T08:10:51;99612.00;;;18.30
64960;BMP180;51487;52.266;10.542;2023-07-28T08:13:17;99612.00;;;18.50
64960;BMP180;51487;52.266;10.542;2023-07-28T08:15:43;99607.00;;;18.70
64960;BMP180;51487;52.266;10.542;2023-07-28T08:18:11;99612.00;;;18.60
64960;BMP180;51487;52.266;10.542;2023-07-28T08:20:38;99610.00;;;18.70
64960;BMP180;51487;52.266;10.542;2023-07-28T08:23:04;99613.00;;;18.70
64960;BMP180;51487;52.266;10.542;2023-07-28T08:25:30;99620.00;;;18.70
64960;BMP180;51487;52.266;10.542;2023-07-28T08:27:55;99624.00;;;18.70
64960;BMP180;51487;52.266;10.542;2023-07-28T08:30:22;99625.00;;;18.80
64960;BMP180;51487;52.266;10.542;2023-07-28T08:32:48;99626.00;;;18.90
64960;BMP180;51487;52.266;10.542;2023-07-28T08:35:14;99636.00;;;19.00
64960;BMP180;51487;52.266;10.542;2023-07-28T08:37:40;99628.00;;;19.20
64960;BMP180;51487;52.266;10.542;2023-07-28T08:40:06;99634.00;;;19.20
64960;BMP180;51487;52.266;10.542;2023-07-28T08:42:40;99629.00;;;19.30
64960;BMP180;51487;52.266;10.542;2023-07-28T08:45:06;99632.00;;;19.30
64960;BMP180;51487;52.266;10.542;2023-07-28T08:47:34;99630.00;;;19.40
64960;BMP180;51487;52.266;10.542;2023-07-28T08:50:00;99636.00;;;19.70
64960;BMP180;51487;52.266;10.542;2023-07-28T08:52:26;99636.00;;;19.70
64960;BMP180;51487;52.266;10.542;2023-07-28T08:54:52;99642.00;;;19.70
64960;BMP180;51487;52.266;10.542;2023-07-28T08:57:18;99640.00;;;19.70
64960;BMP180;51487;52.266;10.542;2023-07-28T08:59:44;99641.00;;;19.70
64960;BMP180;51487;52.266;10.542;2023-07-28T09:02:15;99639.00;;;19.60
64960;BMP180;51487;52.266;10.542;2023-07-28T09:04:42;99648.00;;;19.70
64960;BMP180;51487;52.266;10.542;2023-07-28T09:07:09;99647.00;;;19.50
64960;BMP180;51487;52.266;10.542;2023-07-28T09:09:35;99650.00;;;19.50
64960;BMP180;51487;52.266;10.542;2023-07-28T09:12:04;99647.00;;;19.50
64960;BMP180;51487;52.266;10.542;2023-07-28T09:14:32;99648.00;;;19.50
64960;BMP180;51487;52.266;10.542;2023-07-28T09:17:10;99651.00;;;19.60
64960;BMP180;51487;52.266;10.542;2023-07-28T09:19:55;99649.00;;;19.80
64960;BMP180;51487;52.266;10.542;2023-07-28T09:22:22;99661.00;;;19.80
64960;BMP180;51487;52.266;10.542;2023-07-28T09:24:48;99655.00;;;19.80
64960;BMP180;51487;52.266;10.542;2023-07-28T09:27:26;99658.00;;;19.80
64960;BMP180;51487;52.266;10.542;2023-07-28T09:29:55;99656.00;;;19.80
64960;BMP180;51487;52.266;10.542;2023-07-28T09:32:29;99654.00;;;19.90
64960;BMP180;51487;52.266;10.542;2023-07-28T09:35:09;99658.00;;;19.80
64960;BMP180;51487;52.266;10.542;2023-07-28T09:37:44;99649.00;;;20.30
64960;BMP180;51487;52.266;10.542;2023-07-28T09:40:14;99647.00;;;20.60
64960;BMP180;51487;52.266;10.542;2023-07-28T09:42:43;99649.00;;;20.60
64960;BMP180;51487;52.266;10.542;2023-07-28T09:45:14;99653.00;;;20.80
64960;BMP180;51487;52.266;10.542;2023-07-28T09:47:44;99650.00;;;20.80
64960;BMP180;51487;52.266;10.542;2023-07-28T09:50:15;99657.00;;;20.80
64960;BMP180;51487;52.266;10.542;2023-07-28T09:52:46;99661.00;;;21.10
64960;BMP180;51487;52.266;10.542;2023-07-28T09:55:15;99652.00;;;21.20
64960;BMP180;51487;52.266;10.542;2023-07-28T09:57:45;99654.00;;;21.30
64960;BMP180;51487;52.266;10.542;2023-07-28T10:00:15;99658.00;;;21.40
64960;BMP180;51487;52.266;10.542;2023-07-28T10:02:42;99661.00;;;21.40
64960;BMP180;51487;52.266;10.542;2023-07-28T10:05:09;99662.00;;;21.40
64960;BMP180;51487;52.266;10.542;2023-07-28T10:07:38;99659.00;;;21.50
64960;BMP180;51487;52.266;10.542;2023-07-28T10:10:06;99658.00;;;21.30
64960;BMP180;51487;52.266;10.542;2023-07-28T10:12:51;99661.00;;;21.30
64960;BMP180;51487;52.266;10.542;2023-07-28T10:15:21;99663.00;;;21.40
64960;BMP180;51487;52.266;10.542;2023-07-28T10:17:57;99662.00;;;21.40
64960;BMP180;51487;52.266;10.542;2023-07-28T10:23:20;99662.00;;;21.60
64960;BMP180;51487;52.266;10.542;2023-07-28T10:25:56;99663.00;;;21.80
64960;BMP180;51487;52.266;10.542;2023-07-28T10:28:33;99660.00;;;21.80
64960;BMP180;51487;52.266;10.542;2023-07-28T10:31:08;99664.00;;;22.10
64960;BMP180;51487;52.266;10.542;2023-07-28T10:33:40;99666.00;;;22.00
64960;BMP180;51487;52.266;10.542;2023-07-28T10:42:00;99676.00;;;22.10
64960;BMP180;51487;52.266;10.542;2023-07-28T10:44:30;99676.00;;;22.10
64960;BMP180;51487;52.266;10.542;2023-07-28T10:46:56;99679.00;;;22.00
64960;BMP180;51487;52.266;10.542;2023-07-28T10:49:24;99681.00;;;22.00
64960;BMP180;51487;52.266;10.542;2023-07-28T10:51:51;99684.00;;;21.90
64960;BMP180;51487;52.266;10.542;2023-07-28T10:54:17;99675.00;;;21.90
64960;BMP180;51487;52.266;10.542;2023-07-28T10:56:48;99657.00;;;22.10
64960;BMP180;51487;52.266;10.542;2023-07-28T10:59:14;99651.00;;;22.40
64960;BMP180;51487;52.266;10.542;2023-07-28T11:01:41;99665.00;;;22.50
64960;BMP180;51487;52.266;10.542;2023-07-28T11:04:14;99664.00;;;22.60
64960;BMP180;51487;52.266;10.542;2023-07-28T11:06:47;99669.00;;;22.60
64960;BMP180;51487;52.266;10.542;2023-07-28T11:09:19;99675.00;;;22.50
64960;BMP180;51487;52.266;10.542;2023-07-28T11:11:49;99673.00;;;22.30
64960;BMP180;51487;52.266;10.542;2023-07-28T11:14:16;99669.00;;;22.40
64960;BMP180;51487;52.266;10.542;2023-07-28T11:16:43;99682.00;;;22.60
64960;BMP180;51487;52.266;10.542;2023-07-28T11:19:16;99681.00;;;22.30
64960;BMP180;51487;52.266;10.542;2023-07-28T11:21:44;99664.00;;;22.30
64960;BMP180;51487;52.266;10.542;2023-07-28T11:24:19;99667.00;;;22.50
64960;BMP180;51487;52.266;10.542;2023-07-28T11:26:49;99678.00;;;22.60
64960;BMP180;51487;52.266;10.542;2023-07-28T11:29:15;99666.00;;;22.70
64960;BMP180;51487;52.266;10.542;2023-07-28T11:31:41;99672.00;;;22.80
64960;BMP180;51487;52.266;10.542;2023-07-28T11:34:14;99673.00;;;22.90
64960;BMP180;51487;52.266;10.542;2023-07-28T11:36:41;99675.00;;;23.00
64960;BMP180;51487;52.266;10.542;2023-07-28T11:39:07;99678.00;;;23.10
64960;BMP180;51487;52.266;10.542;2023-07-28T11:41:34;99679.00;;;23.20
64960;BMP180;51487;52.266;10.542;2023-07-28T11:44:00;99679.00;;;23.20
64960;BMP180;51487;52.266;10.542;2023-07-28T11:46:41;99696.00;;;23.00
64960;BMP180;51487;52.266;10.542;2023-07-28T11:49:16;99686.00;;;22.80
64960;BMP180;51487;52.266;10.542;2023-07-28T11:51:49;99679.00;;;22.90
64960;BMP180;51487;52.266;10.542;2023-07-28T11:54:19;99688.00;;;23.00
64960;BMP180;51487;52.266;10.542;2023-07-28T11:56:49;99689.00;;;23.00
64960;BMP180;51487;52.266;10.542;2023-07-28T11:59:17;99687.00;;;23.20
64960;BMP180;51487;52.266;10.542;2023-07-28T12:02:01;99688.00;;;23.20
64960;BMP180;51487;52.266;10.542;2023-07-28T12:04:31;99693.00;;;23.30
64960;BMP180;51487;52.266;10.542;2023-07-28T12:07:15;99694.00;;;23.30
64960;BMP180;51487;52.266;10.542;2023-07-28T12:10:04;99694.00;;;23.00
64960;BMP180;51487;52.266;10.542;2023-07-28T12:12:47;99687.00;;;23.30
64960;BMP180;51487;52.266;10.542;2023-07-28T12:15:21;99693.00;;;23.40
64960;BMP180;51487;52.266;10.542;2023-07-28T12:18:13;99703.00;;;23.20
64960;BMP180;51487;52.266;10.542;2023-07-28T12:20:43;99707.00;;;23.10
64960;BMP180;51487;52.266;10.542;2023-07-28T12:23:19;99707.00;;;23.10
64960;BMP180;51487;52.266;10.542;2023-07-28T12:25:46;99715.00;;;23.20
64960;BMP180;51487;52.266;10.542;2023-07-28T12:28:13;99710.00;;;23.40
64960;BMP180;51487;52.266;10.542;2023-07-28T12:30:39;99711.00;;;23.30
64960;BMP180;51487;52.266;10.542;2023-07-28T12:33:05;99722.00;;;23.40
64960;BMP180;51487;52.266;10.542;2023-07-28T12:35:35;99712.00;;;23.40
64960;BMP180;51487;52.266;10.542;2023-07-28T12:38:02;99730.00;;;23.50
64960;BMP180;51487;52.266;10.542;2023-07-28T12:40:36;99723.00;;;23.40
64960;BMP180;51487;52.266;10.542;2023-07-28T12:43:03;99713.00;;;23.30
64960;BMP180;51487;52.266;10.542;2023-07-28T12:45:30;99714.00;;;23.40
64960;BMP180;51487;52.266;10.542;2023-07-28T12:48:02;99714.00;;;23.70
64960;BMP180;51487;52.266;10.542;2023-07-28T12:50:34;99721.00;;;23.80
64960;BMP180;51487;52.266;10.542;2023-07-28T12:52:59;99721.00;;;23.90
64960;BMP180;51487;52.266;10.542;2023-07-28T12:55:25;99717.00;;;24.00
64960;BMP180;51487;52.266;10.542;2023-07-28T12:57:55;99711.00;;;24.00
64960;BMP180;51487;52.266;10.542;2023-07-28T13:00:26;99727.00;;;23.80
64960;BMP180;51487;52.266;10.542;2023-07-28T13:02:53;99723.00;;;23.90
64960;BMP180;51487;52.266;10.542;2023-07-28T13:05:19;99740.00;;;23.80
64960;BMP180;51487;52.266;10.542;2023-07-28T13:07:47;99740.00;;;23.80
64960;BMP180;51487;52.266;10.542;2023-07-28T13:10:13;99735.00;;;23.60
64960;BMP180;51487;52.266;10.542;2023-07-28T13:12:38;99730.00;;;23.80
64960;BMP180;51487;52.266;10.542;2023-07-28T13:15:05;99737.00;;;23.80
64960;BMP180;51487;52.266;10.542;2023-07-28T13:17:31;99729.00;;;23.90
64960;BMP180;51487;52.266;10.542;2023-07-28T13:19:56;99735.00;;;24.00
64960;BMP180;51487;52.266;10.542;2023-07-28T13:22:25;99738.00;;;24.00
64960;BMP180;51487;52.266;10.542;2023-07-28T13:24:52;99743.00;;;23.80
64960;BMP180;51487;52.266;10.542;2023-07-28T13:27:18;99734.00;;;23.70
64960;BMP180;51487;52.266;10.542;2023-07-28T13:29:47;99735.00;;;23.70
64960;BMP180;51487;52.266;10.542;2023-07-28T13:32:24;99732.00;;;23.70
64960;BMP180;51487;52.266;10.542;2023-07-28T13:34:51;99738.00;;;23.70
64960;BMP180;51487;52.266;10.542;2023-07-28T13:37:18;99736.00;;;23.70
64960;BMP180;51487;52.266;10.542;2023-07-28T13:39:46;99725.00;;;23.70
64960;BMP180;51487;52.266;10.542;2023-07-28T13:42:12;99733.00;;;23.90
64960;BMP180;51487;52.266;10.542;2023-07-28T13:44:41;99728.00;;;24.00
64960;BMP180;51487;52.266;10.542;2023-07-28T13:47:07;99711.00;;;24.10
64960;BMP180;51487;52.266;10.542;2023-07-28T13:49:33;99727.00;;;23.80
64960;BMP180;51487;52.266;10.542;2023-07-28T13:52:03;99728.00;;;23.70
64960;BMP180;51487;52.266;10.542;2023-07-28T13:54:29;99727.00;;;23.60
64960;BMP180;51487;52.266;10.542;2023-07-28T13:56:57;99712.00;;;24.00
64960;BMP180;51487;52.266;10.542;2023-07-28T13:59:22;99717.00;;;24.30
64960;BMP180;51487;52.266;10.542;2023-07-28T14:01:49;99714.00;;;24.40
64960;BMP180;51487;52.266;10.542;2023-07-28T14:04:15;99712.00;;;24.70
64960;BMP180;51487;52.266;10.542;2023-07-28T14:06:41;99722.00;;;24.60
64960;BMP180;51487;52.266;10.542;2023-07-28T14:09:06;99723.00;;;24.50
64960;BMP180;51487;52.266;10.542;2023-07-28T14:11:32;99717.00;;;24.60
64960;BMP180;51487;52.266;10.542;2023-07-28T14:13:58;99720.00;;;24.60